<?xml version="1.0" encoding="utf-8"?>
<gpx xmlns:xsi="http://www.w3.org/2001/XMLSchema-instance" xmlns:xsd="http://www.w3.org/2001/XMLSchema" version="1.1" creator="Shapelink.com" xmlns="http://www.topografix.com/GPX/1/1" xmlns:gpxtpx="http://www.garmin.com/xmlschemas/TrackPointExtension/v1">
  <metadata>
    <name>Gåing 1.93 km, 2013-12-24</name>
    <desc></desc>
    <author><name>Alexander Engvall</name></author> 
    <time>2013-12-24T13:39:17Z</time>
  </metadata>
  <trk>
    <name>Gåing 1.93 km, 2013-12-24</name>
    <trkseg>
      <trkpt lat="62.8123077" lon="14.4121203">
        <ele>342.2</ele>
        <time>2013-12-24T13:39:17Z</time>
      </trkpt>
      <trkpt lat="62.8122322" lon="14.4119742">
        <ele>343.6</ele>
        <time>2013-12-24T13:39:23Z</time>
      </trkpt>
      <trkpt lat="62.8121272" lon="14.4118529">
        <ele>343.4</ele>
        <time>2013-12-24T13:39:31Z</time>
      </trkpt>
      <trkpt lat="62.81204" lon="14.4117245">
        <ele>343</ele>
        <time>2013-12-24T13:39:39Z</time>
      </trkpt>
      <trkpt lat="62.8120044" lon="14.4116767">
        <ele>342.6</ele>
        <time>2013-12-24T13:39:42Z</time>
      </trkpt>
      <trkpt lat="62.8119835" lon="14.411638">
        <ele>342.4</ele>
        <time>2013-12-24T13:39:44Z</time>
      </trkpt>
      <trkpt lat="62.8118918" lon="14.4114707">
        <ele>341.6</ele>
        <time>2013-12-24T13:39:53Z</time>
      </trkpt>
      <trkpt lat="62.8118283" lon="14.4113362">
        <ele>341</ele>
        <time>2013-12-24T13:40:00Z</time>
      </trkpt>
      <trkpt lat="62.811768" lon="14.4112218">
        <ele>340.6</ele>
        <time>2013-12-24T13:40:05Z</time>
      </trkpt>
      <trkpt lat="62.8116904" lon="14.41107">
        <ele>340</ele>
        <time>2013-12-24T13:40:12Z</time>
      </trkpt>
      <trkpt lat="62.8116577" lon="14.4110045">
        <ele>339.8</ele>
        <time>2013-12-24T13:40:16Z</time>
      </trkpt>
      <trkpt lat="62.811637" lon="14.4109712">
        <ele>339.8</ele>
        <time>2013-12-24T13:40:19Z</time>
      </trkpt>
      <trkpt lat="62.8116299" lon="14.410958">
        <ele>339.6</ele>
        <time>2013-12-24T13:40:20Z</time>
      </trkpt>
      <trkpt lat="62.8115621" lon="14.4108328">
        <ele>339.4</ele>
        <time>2013-12-24T13:40:26Z</time>
      </trkpt>
      <trkpt lat="62.8115293" lon="14.4107622">
        <ele>339.2</ele>
        <time>2013-12-24T13:40:32Z</time>
      </trkpt>
      <trkpt lat="62.8114837" lon="14.410681">
        <ele>339.4</ele>
        <time>2013-12-24T13:40:38Z</time>
      </trkpt>
      <trkpt lat="62.811429" lon="14.4105828">
        <ele>339.2</ele>
        <time>2013-12-24T13:40:45Z</time>
      </trkpt>
      <trkpt lat="62.8113924" lon="14.4105413">
        <ele>339.2</ele>
        <time>2013-12-24T13:40:49Z</time>
      </trkpt>
      <trkpt lat="62.8113602" lon="14.4104802">
        <ele>339</ele>
        <time>2013-12-24T13:40:52Z</time>
      </trkpt>
      <trkpt lat="62.8113135" lon="14.4103901">
        <ele>338.6</ele>
        <time>2013-12-24T13:40:57Z</time>
      </trkpt>
      <trkpt lat="62.8112924" lon="14.4103551">
        <ele>338.4</ele>
        <time>2013-12-24T13:40:59Z</time>
      </trkpt>
      <trkpt lat="62.8112691" lon="14.4102993">
        <ele>338.2</ele>
        <time>2013-12-24T13:41:01Z</time>
      </trkpt>
      <trkpt lat="62.8112371" lon="14.4102296">
        <ele>338</ele>
        <time>2013-12-24T13:41:05Z</time>
      </trkpt>
      <trkpt lat="62.8111721" lon="14.4101165">
        <ele>337.6</ele>
        <time>2013-12-24T13:41:12Z</time>
      </trkpt>
      <trkpt lat="62.8111239" lon="14.4100414">
        <ele>337.2</ele>
        <time>2013-12-24T13:41:18Z</time>
      </trkpt>
      <trkpt lat="62.8110644" lon="14.4099321">
        <ele>337</ele>
        <time>2013-12-24T13:41:24Z</time>
      </trkpt>
      <trkpt lat="62.8110106" lon="14.4098263">
        <ele>336.8</ele>
        <time>2013-12-24T13:41:30Z</time>
      </trkpt>
      <trkpt lat="62.8109511" lon="14.4097104">
        <ele>336.4</ele>
        <time>2013-12-24T13:41:37Z</time>
      </trkpt>
      <trkpt lat="62.8109413" lon="14.4096966">
        <ele>336.4</ele>
        <time>2013-12-24T13:41:38Z</time>
      </trkpt>
      <trkpt lat="62.8108968" lon="14.4096181">
        <ele>336.2</ele>
        <time>2013-12-24T13:41:44Z</time>
      </trkpt>
      <trkpt lat="62.8108397" lon="14.409531">
        <ele>336</ele>
        <time>2013-12-24T13:41:57Z</time>
      </trkpt>
      <trkpt lat="62.8108008" lon="14.4094576">
        <ele>335.8</ele>
        <time>2013-12-24T13:42:03Z</time>
      </trkpt>
      <trkpt lat="62.8107353" lon="14.40931">
        <ele>335.6</ele>
        <time>2013-12-24T13:42:10Z</time>
      </trkpt>
      <trkpt lat="62.8107123" lon="14.4091461">
        <ele>335.6</ele>
        <time>2013-12-24T13:42:17Z</time>
      </trkpt>
      <trkpt lat="62.810733" lon="14.4090097">
        <ele>336</ele>
        <time>2013-12-24T13:42:23Z</time>
      </trkpt>
      <trkpt lat="62.8107972" lon="14.4088728">
        <ele>336.2</ele>
        <time>2013-12-24T13:42:31Z</time>
      </trkpt>
      <trkpt lat="62.8107989" lon="14.4088568">
        <ele>336.2</ele>
        <time>2013-12-24T13:42:32Z</time>
      </trkpt>
      <trkpt lat="62.8108053" lon="14.4088469">
        <ele>336.2</ele>
        <time>2013-12-24T13:42:36Z</time>
      </trkpt>
      <trkpt lat="62.810858" lon="14.4087632">
        <ele>336.6</ele>
        <time>2013-12-24T13:42:43Z</time>
      </trkpt>
      <trkpt lat="62.8108846" lon="14.4086858">
        <ele>336.8</ele>
        <time>2013-12-24T13:42:49Z</time>
      </trkpt>
      <trkpt lat="62.8108979" lon="14.4086444">
        <ele>336.8</ele>
        <time>2013-12-24T13:42:52Z</time>
      </trkpt>
      <trkpt lat="62.8109099" lon="14.4086031">
        <ele>336.8</ele>
        <time>2013-12-24T13:42:54Z</time>
      </trkpt>
      <trkpt lat="62.8109068" lon="14.4085773">
        <ele>336.8</ele>
        <time>2013-12-24T13:43:00Z</time>
      </trkpt>
      <trkpt lat="62.8108873" lon="14.4085646">
        <ele>338.6</ele>
        <time>2013-12-24T13:43:18Z</time>
      </trkpt>
      <trkpt lat="62.8109019" lon="14.40849">
        <ele>339.4</ele>
        <time>2013-12-24T13:43:24Z</time>
      </trkpt>
      <trkpt lat="62.810902" lon="14.4084499">
        <ele>339.4</ele>
        <time>2013-12-24T13:43:25Z</time>
      </trkpt>
      <trkpt lat="62.8109122" lon="14.4083799">
        <ele>339.6</ele>
        <time>2013-12-24T13:43:28Z</time>
      </trkpt>
      <trkpt lat="62.8109219" lon="14.4083248">
        <ele>339.6</ele>
        <time>2013-12-24T13:43:30Z</time>
      </trkpt>
      <trkpt lat="62.8109169" lon="14.4082797">
        <ele>339.6</ele>
        <time>2013-12-24T13:43:31Z</time>
      </trkpt>
      <trkpt lat="62.8109241" lon="14.4081649">
        <ele>339.6</ele>
        <time>2013-12-24T13:43:35Z</time>
      </trkpt>
      <trkpt lat="62.8109283" lon="14.4080088">
        <ele>339.8</ele>
        <time>2013-12-24T13:43:41Z</time>
      </trkpt>
      <trkpt lat="62.8109286" lon="14.4079518">
        <ele>340</ele>
        <time>2013-12-24T13:43:43Z</time>
      </trkpt>
      <trkpt lat="62.8109287" lon="14.4078601">
        <ele>339.8</ele>
        <time>2013-12-24T13:43:49Z</time>
      </trkpt>
      <trkpt lat="62.8109212" lon="14.4077642">
        <ele>340</ele>
        <time>2013-12-24T13:43:54Z</time>
      </trkpt>
      <trkpt lat="62.8108759" lon="14.4076092">
        <ele>339.8</ele>
        <time>2013-12-24T13:44:01Z</time>
      </trkpt>
      <trkpt lat="62.8108751" lon="14.4076011">
        <ele>339.8</ele>
        <time>2013-12-24T13:44:06Z</time>
      </trkpt>
      <trkpt lat="62.8108651" lon="14.4075753">
        <ele>339.8</ele>
        <time>2013-12-24T13:44:14Z</time>
      </trkpt>
      <trkpt lat="62.8108309" lon="14.4074818">
        <ele>339.6</ele>
        <time>2013-12-24T13:44:24Z</time>
      </trkpt>
      <trkpt lat="62.8108091" lon="14.4074154">
        <ele>339.4</ele>
        <time>2013-12-24T13:44:30Z</time>
      </trkpt>
      <trkpt lat="62.8107819" lon="14.4073165">
        <ele>339.2</ele>
        <time>2013-12-24T13:44:36Z</time>
      </trkpt>
      <trkpt lat="62.8107421" lon="14.4071693">
        <ele>339</ele>
        <time>2013-12-24T13:44:44Z</time>
      </trkpt>
      <trkpt lat="62.8106921" lon="14.4069819">
        <ele>338.8</ele>
        <time>2013-12-24T13:44:52Z</time>
      </trkpt>
      <trkpt lat="62.8106634" lon="14.4068619">
        <ele>338.6</ele>
        <time>2013-12-24T13:44:57Z</time>
      </trkpt>
      <trkpt lat="62.8106553" lon="14.4068203">
        <ele>338.6</ele>
        <time>2013-12-24T13:44:59Z</time>
      </trkpt>
      <trkpt lat="62.8106371" lon="14.4067498">
        <ele>338.6</ele>
        <time>2013-12-24T13:45:02Z</time>
      </trkpt>
      <trkpt lat="62.8106064" lon="14.4066329">
        <ele>338.4</ele>
        <time>2013-12-24T13:45:08Z</time>
      </trkpt>
      <trkpt lat="62.8105738" lon="14.4065099">
        <ele>338.2</ele>
        <time>2013-12-24T13:45:15Z</time>
      </trkpt>
      <trkpt lat="62.8105465" lon="14.4064562">
        <ele>338.2</ele>
        <time>2013-12-24T13:45:21Z</time>
      </trkpt>
      <trkpt lat="62.8104954" lon="14.4063917">
        <ele>338.4</ele>
        <time>2013-12-24T13:45:40Z</time>
      </trkpt>
      <trkpt lat="62.8104344" lon="14.4062102">
        <ele>338.6</ele>
        <time>2013-12-24T13:45:46Z</time>
      </trkpt>
      <trkpt lat="62.8104161" lon="14.4061371">
        <ele>338.6</ele>
        <time>2013-12-24T13:45:49Z</time>
      </trkpt>
      <trkpt lat="62.8104058" lon="14.4060963">
        <ele>338.6</ele>
        <time>2013-12-24T13:45:51Z</time>
      </trkpt>
      <trkpt lat="62.810372" lon="14.4059376">
        <ele>338.8</ele>
        <time>2013-12-24T13:45:59Z</time>
      </trkpt>
      <trkpt lat="62.8103435" lon="14.405777">
        <ele>339.2</ele>
        <time>2013-12-24T13:46:08Z</time>
      </trkpt>
      <trkpt lat="62.8103379" lon="14.4056403">
        <ele>339.4</ele>
        <time>2013-12-24T13:46:16Z</time>
      </trkpt>
      <trkpt lat="62.8103354" lon="14.4055729">
        <ele>339.8</ele>
        <time>2013-12-24T13:46:20Z</time>
      </trkpt>
      <trkpt lat="62.8103329" lon="14.4055434">
        <ele>340</ele>
        <time>2013-12-24T13:46:22Z</time>
      </trkpt>
      <trkpt lat="62.8103372" lon="14.4055232">
        <ele>340</ele>
        <time>2013-12-24T13:46:23Z</time>
      </trkpt>
      <trkpt lat="62.8103303" lon="14.4053813">
        <ele>340.4</ele>
        <time>2013-12-24T13:46:29Z</time>
      </trkpt>
      <trkpt lat="62.8103293" lon="14.4053701">
        <ele>340.4</ele>
        <time>2013-12-24T13:46:30Z</time>
      </trkpt>
      <trkpt lat="62.8103286" lon="14.4053072">
        <ele>340.8</ele>
        <time>2013-12-24T13:46:34Z</time>
      </trkpt>
      <trkpt lat="62.8103157" lon="14.4052282">
        <ele>341</ele>
        <time>2013-12-24T13:46:37Z</time>
      </trkpt>
      <trkpt lat="62.8103072" lon="14.4051691">
        <ele>341.2</ele>
        <time>2013-12-24T13:46:39Z</time>
      </trkpt>
      <trkpt lat="62.8102859" lon="14.4049268">
        <ele>341.8</ele>
        <time>2013-12-24T13:46:48Z</time>
      </trkpt>
      <trkpt lat="62.8102801" lon="14.4048764">
        <ele>342</ele>
        <time>2013-12-24T13:46:50Z</time>
      </trkpt>
      <trkpt lat="62.8102654" lon="14.4047802">
        <ele>342.4</ele>
        <time>2013-12-24T13:46:54Z</time>
      </trkpt>
      <trkpt lat="62.8102611" lon="14.4047541">
        <ele>342.4</ele>
        <time>2013-12-24T13:46:55Z</time>
      </trkpt>
      <trkpt lat="62.8102502" lon="14.4045994">
        <ele>343</ele>
        <time>2013-12-24T13:47:01Z</time>
      </trkpt>
      <trkpt lat="62.8102508" lon="14.4045806">
        <ele>343.2</ele>
        <time>2013-12-24T13:47:02Z</time>
      </trkpt>
      <trkpt lat="62.8102311" lon="14.4044422">
        <ele>343.6</ele>
        <time>2013-12-24T13:47:07Z</time>
      </trkpt>
      <trkpt lat="62.8102264" lon="14.4044162">
        <ele>343.8</ele>
        <time>2013-12-24T13:47:08Z</time>
      </trkpt>
      <trkpt lat="62.8102098" lon="14.4042474">
        <ele>344.6</ele>
        <time>2013-12-24T13:47:15Z</time>
      </trkpt>
      <trkpt lat="62.8102079" lon="14.4042271">
        <ele>344.8</ele>
        <time>2013-12-24T13:47:16Z</time>
      </trkpt>
      <trkpt lat="62.8101959" lon="14.4041291">
        <ele>345.4</ele>
        <time>2013-12-24T13:47:21Z</time>
      </trkpt>
      <trkpt lat="62.8101905" lon="14.4041009">
        <ele>345.4</ele>
        <time>2013-12-24T13:47:22Z</time>
      </trkpt>
      <trkpt lat="62.8101716" lon="14.4039596">
        <ele>346</ele>
        <time>2013-12-24T13:47:28Z</time>
      </trkpt>
      <trkpt lat="62.8101724" lon="14.4039343">
        <ele>346.2</ele>
        <time>2013-12-24T13:47:30Z</time>
      </trkpt>
      <trkpt lat="62.8101378" lon="14.4038104">
        <ele>346.6</ele>
        <time>2013-12-24T13:47:36Z</time>
      </trkpt>
      <trkpt lat="62.8101005" lon="14.4037391">
        <ele>346.8</ele>
        <time>2013-12-24T13:47:42Z</time>
      </trkpt>
      <trkpt lat="62.8100736" lon="14.4036456">
        <ele>347.2</ele>
        <time>2013-12-24T13:47:47Z</time>
      </trkpt>
      <trkpt lat="62.810065" lon="14.403622">
        <ele>347.2</ele>
        <time>2013-12-24T13:47:48Z</time>
      </trkpt>
      <trkpt lat="62.8100286" lon="14.4035539">
        <ele>347.4</ele>
        <time>2013-12-24T13:47:51Z</time>
      </trkpt>
      <trkpt lat="62.8099843" lon="14.4034609">
        <ele>347.8</ele>
        <time>2013-12-24T13:47:55Z</time>
      </trkpt>
      <trkpt lat="62.809954" lon="14.4033956">
        <ele>348</ele>
        <time>2013-12-24T13:48:00Z</time>
      </trkpt>
      <trkpt lat="62.8099125" lon="14.4033503">
        <ele>348.2</ele>
        <time>2013-12-24T13:48:05Z</time>
      </trkpt>
      <trkpt lat="62.8098981" lon="14.4033223">
        <ele>348.2</ele>
        <time>2013-12-24T13:48:06Z</time>
      </trkpt>
      <trkpt lat="62.80985" lon="14.4032556">
        <ele>348.6</ele>
        <time>2013-12-24T13:48:12Z</time>
      </trkpt>
      <trkpt lat="62.8098073" lon="14.403202">
        <ele>348.6</ele>
        <time>2013-12-24T13:48:18Z</time>
      </trkpt>
      <trkpt lat="62.8097979" lon="14.4031937">
        <ele>348.6</ele>
        <time>2013-12-24T13:48:19Z</time>
      </trkpt>
      <trkpt lat="62.8097649" lon="14.4031538">
        <ele>348.8</ele>
        <time>2013-12-24T13:48:23Z</time>
      </trkpt>
      <trkpt lat="62.8097546" lon="14.4031397">
        <ele>348.8</ele>
        <time>2013-12-24T13:48:24Z</time>
      </trkpt>
      <trkpt lat="62.80974" lon="14.4030937">
        <ele>348.8</ele>
        <time>2013-12-24T13:48:26Z</time>
      </trkpt>
      <trkpt lat="62.8096994" lon="14.4029925">
        <ele>349.2</ele>
        <time>2013-12-24T13:48:31Z</time>
      </trkpt>
      <trkpt lat="62.8096489" lon="14.4029258">
        <ele>349.6</ele>
        <time>2013-12-24T13:48:37Z</time>
      </trkpt>
      <trkpt lat="62.8096437" lon="14.4029139">
        <ele>349.6</ele>
        <time>2013-12-24T13:48:38Z</time>
      </trkpt>
      <trkpt lat="62.8096366" lon="14.4028798">
        <ele>350</ele>
        <time>2013-12-24T13:48:44Z</time>
      </trkpt>
      <trkpt lat="62.8096255" lon="14.4028996">
        <ele>349.8</ele>
        <time>2013-12-24T13:49:12Z</time>
      </trkpt>
      <trkpt lat="62.809595" lon="14.4028377">
        <ele>350.6</ele>
        <time>2013-12-24T13:49:18Z</time>
      </trkpt>
      <trkpt lat="62.8096628" lon="14.4028848">
        <ele>362</ele>
        <time>2013-12-24T13:51:30Z</time>
      </trkpt>
      <trkpt lat="62.8097009" lon="14.402952">
        <ele>361.8</ele>
        <time>2013-12-24T13:51:34Z</time>
      </trkpt>
      <trkpt lat="62.8097607" lon="14.403095">
        <ele>361.4</ele>
        <time>2013-12-24T13:51:40Z</time>
      </trkpt>
      <trkpt lat="62.809776" lon="14.4031307">
        <ele>361.2</ele>
        <time>2013-12-24T13:51:42Z</time>
      </trkpt>
      <trkpt lat="62.8098094" lon="14.4031874">
        <ele>360.8</ele>
        <time>2013-12-24T13:51:46Z</time>
      </trkpt>
      <trkpt lat="62.8098382" lon="14.4032612">
        <ele>360.2</ele>
        <time>2013-12-24T13:51:50Z</time>
      </trkpt>
      <trkpt lat="62.8098656" lon="14.4033174">
        <ele>359.8</ele>
        <time>2013-12-24T13:51:53Z</time>
      </trkpt>
      <trkpt lat="62.8098722" lon="14.403337">
        <ele>359.6</ele>
        <time>2013-12-24T13:51:54Z</time>
      </trkpt>
      <trkpt lat="62.8099052" lon="14.4033916">
        <ele>359</ele>
        <time>2013-12-24T13:51:57Z</time>
      </trkpt>
      <trkpt lat="62.8099178" lon="14.4034061">
        <ele>358.8</ele>
        <time>2013-12-24T13:51:58Z</time>
      </trkpt>
      <trkpt lat="62.8099746" lon="14.4035026">
        <ele>357.6</ele>
        <time>2013-12-24T13:52:04Z</time>
      </trkpt>
      <trkpt lat="62.809982" lon="14.4035228">
        <ele>357.4</ele>
        <time>2013-12-24T13:52:05Z</time>
      </trkpt>
      <trkpt lat="62.8100431" lon="14.4036306">
        <ele>356.4</ele>
        <time>2013-12-24T13:52:11Z</time>
      </trkpt>
      <trkpt lat="62.8100649" lon="14.4036931">
        <ele>355.8</ele>
        <time>2013-12-24T13:52:14Z</time>
      </trkpt>
      <trkpt lat="62.8100987" lon="14.4037441">
        <ele>355.2</ele>
        <time>2013-12-24T13:52:17Z</time>
      </trkpt>
      <trkpt lat="62.8101119" lon="14.4037606">
        <ele>355</ele>
        <time>2013-12-24T13:52:18Z</time>
      </trkpt>
      <trkpt lat="62.8101533" lon="14.4038648">
        <ele>354.4</ele>
        <time>2013-12-24T13:52:22Z</time>
      </trkpt>
      <trkpt lat="62.8101581" lon="14.4038911">
        <ele>354.2</ele>
        <time>2013-12-24T13:52:23Z</time>
      </trkpt>
      <trkpt lat="62.8101652" lon="14.4039054">
        <ele>354</ele>
        <time>2013-12-24T13:52:24Z</time>
      </trkpt>
      <trkpt lat="62.8101919" lon="14.4040544">
        <ele>352.8</ele>
        <time>2013-12-24T13:52:31Z</time>
      </trkpt>
      <trkpt lat="62.8101947" lon="14.4040737">
        <ele>352.8</ele>
        <time>2013-12-24T13:52:32Z</time>
      </trkpt>
      <trkpt lat="62.8102155" lon="14.4042012">
        <ele>352.2</ele>
        <time>2013-12-24T13:52:38Z</time>
      </trkpt>
      <trkpt lat="62.8102217" lon="14.4042151">
        <ele>352</ele>
        <time>2013-12-24T13:52:39Z</time>
      </trkpt>
      <trkpt lat="62.8102256" lon="14.4042339">
        <ele>352</ele>
        <time>2013-12-24T13:52:40Z</time>
      </trkpt>
      <trkpt lat="62.8102276" lon="14.4042757">
        <ele>351.8</ele>
        <time>2013-12-24T13:52:44Z</time>
      </trkpt>
      <trkpt lat="62.8102321" lon="14.4042933">
        <ele>351.6</ele>
        <time>2013-12-24T13:52:45Z</time>
      </trkpt>
      <trkpt lat="62.8102756" lon="14.4044427">
        <ele>351.2</ele>
        <time>2013-12-24T13:52:52Z</time>
      </trkpt>
      <trkpt lat="62.8102798" lon="14.4045034">
        <ele>351.2</ele>
        <time>2013-12-24T13:52:54Z</time>
      </trkpt>
      <trkpt lat="62.8103088" lon="14.4046294">
        <ele>350.8</ele>
        <time>2013-12-24T13:52:59Z</time>
      </trkpt>
      <trkpt lat="62.8103144" lon="14.4047382">
        <ele>350.6</ele>
        <time>2013-12-24T13:53:03Z</time>
      </trkpt>
      <trkpt lat="62.8103256" lon="14.4047835">
        <ele>350.4</ele>
        <time>2013-12-24T13:53:05Z</time>
      </trkpt>
      <trkpt lat="62.810329" lon="14.4048201">
        <ele>350.2</ele>
        <time>2013-12-24T13:53:07Z</time>
      </trkpt>
      <trkpt lat="62.8103308" lon="14.4048856">
        <ele>350.2</ele>
        <time>2013-12-24T13:53:10Z</time>
      </trkpt>
      <trkpt lat="62.8103524" lon="14.4050598">
        <ele>349.6</ele>
        <time>2013-12-24T13:53:17Z</time>
      </trkpt>
      <trkpt lat="62.810365" lon="14.4051537">
        <ele>349.4</ele>
        <time>2013-12-24T13:53:21Z</time>
      </trkpt>
      <trkpt lat="62.8103693" lon="14.4051906">
        <ele>349.2</ele>
        <time>2013-12-24T13:53:23Z</time>
      </trkpt>
      <trkpt lat="62.8103823" lon="14.4052651">
        <ele>349</ele>
        <time>2013-12-24T13:53:26Z</time>
      </trkpt>
      <trkpt lat="62.8103908" lon="14.4053393">
        <ele>349</ele>
        <time>2013-12-24T13:53:29Z</time>
      </trkpt>
      <trkpt lat="62.8103897" lon="14.4053517">
        <ele>349</ele>
        <time>2013-12-24T13:53:30Z</time>
      </trkpt>
      <trkpt lat="62.8103999" lon="14.4054143">
        <ele>349</ele>
        <time>2013-12-24T13:53:35Z</time>
      </trkpt>
      <trkpt lat="62.8104094" lon="14.4054573">
        <ele>349</ele>
        <time>2013-12-24T13:53:37Z</time>
      </trkpt>
      <trkpt lat="62.8104054" lon="14.4055161">
        <ele>348.8</ele>
        <time>2013-12-24T13:53:40Z</time>
      </trkpt>
      <trkpt lat="62.810405" lon="14.4055262">
        <ele>348.8</ele>
        <time>2013-12-24T13:53:41Z</time>
      </trkpt>
      <trkpt lat="62.810433" lon="14.4055384">
        <ele>349.2</ele>
        <time>2013-12-24T13:53:51Z</time>
      </trkpt>
      <trkpt lat="62.8104204" lon="14.4056727">
        <ele>349.2</ele>
        <time>2013-12-24T13:53:58Z</time>
      </trkpt>
      <trkpt lat="62.8104264" lon="14.4057097">
        <ele>349.2</ele>
        <time>2013-12-24T13:54:00Z</time>
      </trkpt>
      <trkpt lat="62.8104331" lon="14.4057923">
        <ele>349.2</ele>
        <time>2013-12-24T13:54:04Z</time>
      </trkpt>
      <trkpt lat="62.8104408" lon="14.405938">
        <ele>349</ele>
        <time>2013-12-24T13:54:11Z</time>
      </trkpt>
      <trkpt lat="62.8104543" lon="14.4059968">
        <ele>349</ele>
        <time>2013-12-24T13:54:14Z</time>
      </trkpt>
      <trkpt lat="62.8104551" lon="14.4060635">
        <ele>348.8</ele>
        <time>2013-12-24T13:54:17Z</time>
      </trkpt>
      <trkpt lat="62.8104836" lon="14.4061917">
        <ele>348.2</ele>
        <time>2013-12-24T13:54:24Z</time>
      </trkpt>
      <trkpt lat="62.8105003" lon="14.4062638">
        <ele>347.8</ele>
        <time>2013-12-24T13:54:30Z</time>
      </trkpt>
      <trkpt lat="62.8105446" lon="14.4064262">
        <ele>347.2</ele>
        <time>2013-12-24T13:54:37Z</time>
      </trkpt>
      <trkpt lat="62.8105755" lon="14.4065461">
        <ele>346.8</ele>
        <time>2013-12-24T13:54:42Z</time>
      </trkpt>
      <trkpt lat="62.8105921" lon="14.4066051">
        <ele>346.6</ele>
        <time>2013-12-24T13:54:44Z</time>
      </trkpt>
      <trkpt lat="62.8106002" lon="14.4066322">
        <ele>346.6</ele>
        <time>2013-12-24T13:54:45Z</time>
      </trkpt>
      <trkpt lat="62.8106413" lon="14.4067487">
        <ele>346</ele>
        <time>2013-12-24T13:54:50Z</time>
      </trkpt>
      <trkpt lat="62.8106988" lon="14.4069272">
        <ele>345.2</ele>
        <time>2013-12-24T13:54:58Z</time>
      </trkpt>
      <trkpt lat="62.8107307" lon="14.4070238">
        <ele>344.8</ele>
        <time>2013-12-24T13:55:03Z</time>
      </trkpt>
      <trkpt lat="62.8107938" lon="14.4072677">
        <ele>344.2</ele>
        <time>2013-12-24T13:55:12Z</time>
      </trkpt>
      <trkpt lat="62.8108531" lon="14.4074674">
        <ele>343.6</ele>
        <time>2013-12-24T13:55:20Z</time>
      </trkpt>
      <trkpt lat="62.810884" lon="14.407607">
        <ele>343.2</ele>
        <time>2013-12-24T13:55:27Z</time>
      </trkpt>
      <trkpt lat="62.8109304" lon="14.4077526">
        <ele>342.6</ele>
        <time>2013-12-24T13:55:35Z</time>
      </trkpt>
      <trkpt lat="62.8109334" lon="14.4077672">
        <ele>342.6</ele>
        <time>2013-12-24T13:55:36Z</time>
      </trkpt>
      <trkpt lat="62.8109439" lon="14.4078242">
        <ele>342.2</ele>
        <time>2013-12-24T13:55:42Z</time>
      </trkpt>
      <trkpt lat="62.8109638" lon="14.4078755">
        <ele>342</ele>
        <time>2013-12-24T13:55:49Z</time>
      </trkpt>
      <trkpt lat="62.8109696" lon="14.4079553">
        <ele>341.8</ele>
        <time>2013-12-24T13:55:54Z</time>
      </trkpt>
      <trkpt lat="62.8109661" lon="14.4080356">
        <ele>341.4</ele>
        <time>2013-12-24T13:55:59Z</time>
      </trkpt>
      <trkpt lat="62.8109557" lon="14.4081823">
        <ele>341.2</ele>
        <time>2013-12-24T13:56:05Z</time>
      </trkpt>
      <trkpt lat="62.8109536" lon="14.4081895">
        <ele>341.2</ele>
        <time>2013-12-24T13:56:06Z</time>
      </trkpt>
      <trkpt lat="62.8109553" lon="14.4082597">
        <ele>340.8</ele>
        <time>2013-12-24T13:56:14Z</time>
      </trkpt>
      <trkpt lat="62.8109249" lon="14.4084126">
        <ele>338.8</ele>
        <time>2013-12-24T13:56:50Z</time>
      </trkpt>
      <trkpt lat="62.8109189" lon="14.4084931">
        <ele>338.6</ele>
        <time>2013-12-24T13:56:57Z</time>
      </trkpt>
      <trkpt lat="62.810896" lon="14.4085921">
        <ele>338.4</ele>
        <time>2013-12-24T13:57:04Z</time>
      </trkpt>
      <trkpt lat="62.8108661" lon="14.4086622">
        <ele>338.2</ele>
        <time>2013-12-24T13:57:09Z</time>
      </trkpt>
      <trkpt lat="62.8108339" lon="14.4087299">
        <ele>338</ele>
        <time>2013-12-24T13:57:16Z</time>
      </trkpt>
      <trkpt lat="62.810792" lon="14.4088303">
        <ele>337.8</ele>
        <time>2013-12-24T13:57:32Z</time>
      </trkpt>
      <trkpt lat="62.8107718" lon="14.4088617">
        <ele>337.8</ele>
        <time>2013-12-24T13:57:35Z</time>
      </trkpt>
      <trkpt lat="62.8107467" lon="14.4088966">
        <ele>337.8</ele>
        <time>2013-12-24T13:57:38Z</time>
      </trkpt>
      <trkpt lat="62.8107396" lon="14.4089101">
        <ele>337.8</ele>
        <time>2013-12-24T13:57:39Z</time>
      </trkpt>
      <trkpt lat="62.8106997" lon="14.409046">
        <ele>337.6</ele>
        <time>2013-12-24T13:57:44Z</time>
      </trkpt>
      <trkpt lat="62.8107194" lon="14.4092365">
        <ele>337.6</ele>
        <time>2013-12-24T13:57:50Z</time>
      </trkpt>
      <trkpt lat="62.8107927" lon="14.4094274">
        <ele>337.2</ele>
        <time>2013-12-24T13:57:58Z</time>
      </trkpt>
      <trkpt lat="62.8108783" lon="14.4095962">
        <ele>337</ele>
        <time>2013-12-24T13:58:06Z</time>
      </trkpt>
      <trkpt lat="62.8108817" lon="14.409612">
        <ele>337</ele>
        <time>2013-12-24T13:58:07Z</time>
      </trkpt>
      <trkpt lat="62.8109137" lon="14.4096889">
        <ele>336.8</ele>
        <time>2013-12-24T13:58:11Z</time>
      </trkpt>
      <trkpt lat="62.8109924" lon="14.409855">
        <ele>336.2</ele>
        <time>2013-12-24T13:58:19Z</time>
      </trkpt>
      <trkpt lat="62.8110616" lon="14.4100135">
        <ele>335.4</ele>
        <time>2013-12-24T13:58:27Z</time>
      </trkpt>
      <trkpt lat="62.8111401" lon="14.4101186">
        <ele>335</ele>
        <time>2013-12-24T13:58:33Z</time>
      </trkpt>
      <trkpt lat="62.8112471" lon="14.4102824">
        <ele>334.8</ele>
        <time>2013-12-24T13:58:41Z</time>
      </trkpt>
      <trkpt lat="62.8113166" lon="14.410388">
        <ele>334.4</ele>
        <time>2013-12-24T13:58:48Z</time>
      </trkpt>
      <trkpt lat="62.8113571" lon="14.4104656">
        <ele>334.4</ele>
        <time>2013-12-24T13:58:54Z</time>
      </trkpt>
      <trkpt lat="62.8114197" lon="14.4105497">
        <ele>334</ele>
        <time>2013-12-24T13:59:06Z</time>
      </trkpt>
      <trkpt lat="62.8114772" lon="14.4106448">
        <ele>334</ele>
        <time>2013-12-24T13:59:13Z</time>
      </trkpt>
      <trkpt lat="62.8114649" lon="14.4106426">
        <ele>333.8</ele>
        <time>2013-12-24T13:59:19Z</time>
      </trkpt>
      <trkpt lat="62.8115205" lon="14.4107413">
        <ele>333.2</ele>
        <time>2013-12-24T13:59:35Z</time>
      </trkpt>
      <trkpt lat="62.8116084" lon="14.4108771">
        <ele>333</ele>
        <time>2013-12-24T13:59:43Z</time>
      </trkpt>
      <trkpt lat="62.8117048" lon="14.4110807">
        <ele>332.6</ele>
        <time>2013-12-24T13:59:52Z</time>
      </trkpt>
      <trkpt lat="62.8117788" lon="14.4112272">
        <ele>332.2</ele>
        <time>2013-12-24T14:00:00Z</time>
      </trkpt>
      <trkpt lat="62.8118679" lon="14.4113949">
        <ele>332</ele>
        <time>2013-12-24T14:00:08Z</time>
      </trkpt>
      <trkpt lat="62.8119529" lon="14.4115342">
        <ele>331.8</ele>
        <time>2013-12-24T14:00:16Z</time>
      </trkpt>
      <trkpt lat="62.8120116" lon="14.4116541">
        <ele>331.6</ele>
        <time>2013-12-24T14:00:22Z</time>
      </trkpt>
      <trkpt lat="62.8120769" lon="14.4117962">
        <ele>331.4</ele>
        <time>2013-12-24T14:00:29Z</time>
      </trkpt>
      <trkpt lat="62.8121024" lon="14.4118277">
        <ele>331.4</ele>
        <time>2013-12-24T14:00:33Z</time>
      </trkpt>
      <trkpt lat="62.8121842" lon="14.4119644">
        <ele>331</ele>
        <time>2013-12-24T14:00:40Z</time>
      </trkpt>
      <trkpt lat="62.8122352" lon="14.4120861">
        <ele>330.6</ele>
        <time>2013-12-24T14:00:46Z</time>
      </trkpt>
      <trkpt lat="62.8123039" lon="14.4122219">
        <ele>330.2</ele>
        <time>2013-12-24T14:00:53Z</time>
      </trkpt>
      <trkpt lat="62.8123279" lon="14.4122789">
        <ele>330</ele>
        <time>2013-12-24T14:00:59Z</time>
      </trkpt>
      <trkpt lat="62.8123914" lon="14.4123665">
        <ele>329.8</ele>
        <time>2013-12-24T14:01:07Z</time>
      </trkpt>
      <trkpt lat="62.812461" lon="14.4124863">
        <ele>329.6</ele>
        <time>2013-12-24T14:01:16Z</time>
      </trkpt>
      <trkpt lat="62.8124703" lon="14.4125372">
        <ele>329.2</ele>
        <time>2013-12-24T14:01:24Z</time>
      </trkpt>
      <trkpt lat="62.8125331" lon="14.4126302">
        <ele>329.2</ele>
        <time>2013-12-24T14:01:32Z</time>
      </trkpt>
      <trkpt lat="62.8125344" lon="14.4126657">
        <ele>329</ele>
        <time>2013-12-24T14:01:37Z</time>
      </trkpt>
      <trkpt lat="62.8125248" lon="14.412665">
        <ele>328.8</ele>
        <time>2013-12-24T14:01:46Z</time>
      </trkpt>
      <trkpt lat="62.8125659" lon="14.4127304">
        <ele>328.2</ele>
        <time>2013-12-24T14:02:11Z</time>
      </trkpt>
      <trkpt lat="62.8125755" lon="14.4127471">
        <ele>328.2</ele>
        <time>2013-12-24T14:02:13Z</time>
      </trkpt>
      <trkpt lat="62.8125897" lon="14.4127751">
        <ele>328</ele>
        <time>2013-12-24T14:02:16Z</time>
      </trkpt>
      <trkpt lat="62.812654" lon="14.4128976">
        <ele>327.8</ele>
        <time>2013-12-24T14:02:23Z</time>
      </trkpt>
      <trkpt lat="62.8127589" lon="14.4130791">
        <ele>327.4</ele>
        <time>2013-12-24T14:02:33Z</time>
      </trkpt>
      <trkpt lat="62.81282" lon="14.4131805">
        <ele>327.2</ele>
        <time>2013-12-24T14:02:40Z</time>
      </trkpt>
      <trkpt lat="62.81284" lon="14.4132368">
        <ele>327</ele>
        <time>2013-12-24T14:02:52Z</time>
      </trkpt>
      <trkpt lat="62.8128779" lon="14.4133253">
        <ele>326.6</ele>
        <time>2013-12-24T14:03:18Z</time>
      </trkpt>
      <trkpt lat="62.8129158" lon="14.413398">
        <ele>326.4</ele>
        <time>2013-12-24T14:03:25Z</time>
      </trkpt>
      <trkpt lat="62.812946" lon="14.4134506">
        <ele>326.2</ele>
        <time>2013-12-24T14:03:32Z</time>
      </trkpt>
      <trkpt lat="62.8130047" lon="14.4135327">
        <ele>326</ele>
        <time>2013-12-24T14:03:46Z</time>
      </trkpt>
      <trkpt lat="62.8130293" lon="14.413567">
        <ele>326</ele>
        <time>2013-12-24T14:03:48Z</time>
      </trkpt>
      <trkpt lat="62.8130815" lon="14.4135221">
        <ele>326</ele>
        <time>2013-12-24T14:03:51Z</time>
      </trkpt>
      <trkpt lat="62.8130964" lon="14.4135051">
        <ele>326</ele>
        <time>2013-12-24T14:03:52Z</time>
      </trkpt>
      <trkpt lat="62.8131298" lon="14.4134068">
        <ele>325.8</ele>
        <time>2013-12-24T14:03:57Z</time>
      </trkpt>
      <trkpt lat="62.8131491" lon="14.4133571">
        <ele>325.6</ele>
        <time>2013-12-24T14:04:01Z</time>
      </trkpt>
      <trkpt lat="62.8132153" lon="14.4132306">
        <ele>325.4</ele>
        <time>2013-12-24T14:04:08Z</time>
      </trkpt>
      <trkpt lat="62.8132111" lon="14.4132537">
        <ele>325</ele>
        <time>2013-12-24T14:04:13Z</time>
      </trkpt>
      <trkpt lat="62.8132094" lon="14.4132776">
        <ele>324.6</ele>
        <time>2013-12-24T14:04:21Z</time>
      </trkpt>
      <trkpt lat="62.8132567" lon="14.413204">
        <ele>324.2</ele>
        <time>2013-12-24T14:04:28Z</time>
      </trkpt>
      <trkpt lat="62.8133484" lon="14.4130461">
        <ele>323.8</ele>
        <time>2013-12-24T14:04:35Z</time>
      </trkpt>
      <trkpt lat="62.8133825" lon="14.4129079">
        <ele>323.6</ele>
        <time>2013-12-24T14:04:41Z</time>
      </trkpt>
      <trkpt lat="62.813406" lon="14.4125842">
        <ele>323.2</ele>
        <time>2013-12-24T14:04:47Z</time>
      </trkpt>
      <trkpt lat="62.8134293" lon="14.4119963">
        <ele>322.6</ele>
        <time>2013-12-24T14:04:55Z</time>
      </trkpt>
      <trkpt lat="62.8134814" lon="14.4114173">
        <ele>322</ele>
        <time>2013-12-24T14:05:03Z</time>
      </trkpt>
      <trkpt lat="62.8135194" lon="14.4111963">
        <ele>321.8</ele>
        <time>2013-12-24T14:05:08Z</time>
      </trkpt>
      <trkpt lat="62.8135661" lon="14.4111388">
        <ele>321.6</ele>
        <time>2013-12-24T14:05:14Z</time>
      </trkpt>
      <trkpt lat="62.8136039" lon="14.4112938">
        <ele>321.6</ele>
        <time>2013-12-24T14:05:21Z</time>
      </trkpt>
      <trkpt lat="62.8136276" lon="14.4114893">
        <ele>321.8</ele>
        <time>2013-12-24T14:05:28Z</time>
      </trkpt>
      <trkpt lat="62.8136513" lon="14.411685">
        <ele>322.4</ele>
        <time>2013-12-24T14:05:37Z</time>
      </trkpt>
      <trkpt lat="62.8136521" lon="14.4117773">
        <ele>322.8</ele>
        <time>2013-12-24T14:05:43Z</time>
      </trkpt>
      <trkpt lat="62.8136426" lon="14.4119546">
        <ele>323.2</ele>
        <time>2013-12-24T14:05:49Z</time>
      </trkpt>
      <trkpt lat="62.813648" lon="14.4122129">
        <ele>323.8</ele>
        <time>2013-12-24T14:05:58Z</time>
      </trkpt>
      <trkpt lat="62.8136597" lon="14.4125341">
        <ele>324.4</ele>
        <time>2013-12-24T14:06:09Z</time>
      </trkpt>
      <trkpt lat="62.8136665" lon="14.4128602">
        <ele>324.6</ele>
        <time>2013-12-24T14:06:19Z</time>
      </trkpt>
      <trkpt lat="62.8136669" lon="14.4131606">
        <ele>324.6</ele>
        <time>2013-12-24T14:06:28Z</time>
      </trkpt>
      <trkpt lat="62.8136668" lon="14.4133332">
        <ele>324.8</ele>
        <time>2013-12-24T14:06:35Z</time>
      </trkpt>
      <trkpt lat="62.8136665" lon="14.4133887">
        <ele>325</ele>
        <time>2013-12-24T14:06:40Z</time>
      </trkpt>
      <trkpt lat="62.8136874" lon="14.4135012">
        <ele>325.2</ele>
        <time>2013-12-24T14:06:46Z</time>
      </trkpt>
      <trkpt lat="62.8136643" lon="14.4136226">
        <ele>325.6</ele>
        <time>2013-12-24T14:06:52Z</time>
      </trkpt>
      <trkpt lat="62.813647" lon="14.4137325">
        <ele>325.6</ele>
        <time>2013-12-24T14:06:57Z</time>
      </trkpt>
      <trkpt lat="62.8136276" lon="14.41389">
        <ele>325.8</ele>
        <time>2013-12-24T14:07:05Z</time>
      </trkpt>
      <trkpt lat="62.813618" lon="14.4140826">
        <ele>325.8</ele>
        <time>2013-12-24T14:07:13Z</time>
      </trkpt>
      <trkpt lat="62.813607" lon="14.4142781">
        <ele>326</ele>
        <time>2013-12-24T14:07:22Z</time>
      </trkpt>
      <trkpt lat="62.8135779" lon="14.4144182">
        <ele>326</ele>
        <time>2013-12-24T14:07:29Z</time>
      </trkpt>
      <trkpt lat="62.81357" lon="14.4144259">
        <ele>326</ele>
        <time>2013-12-24T14:07:30Z</time>
      </trkpt>
      <trkpt lat="62.8135669" lon="14.4144968">
        <ele>326</ele>
        <time>2013-12-24T14:07:34Z</time>
      </trkpt>
      <trkpt lat="62.8135748" lon="14.41451">
        <ele>326</ele>
        <time>2013-12-24T14:07:35Z</time>
      </trkpt>
      <trkpt lat="62.8136469" lon="14.4146395">
        <ele>326.2</ele>
        <time>2013-12-24T14:07:43Z</time>
      </trkpt>
      <trkpt lat="62.8137401" lon="14.4147766">
        <ele>326.4</ele>
        <time>2013-12-24T14:07:52Z</time>
      </trkpt>
      <trkpt lat="62.8138374" lon="14.4149489">
        <ele>327</ele>
        <time>2013-12-24T14:08:02Z</time>
      </trkpt>
      <trkpt lat="62.8139052" lon="14.4151465">
        <ele>327.6</ele>
        <time>2013-12-24T14:08:11Z</time>
      </trkpt>
      <trkpt lat="62.8138609" lon="14.4153186">
        <ele>328.2</ele>
        <time>2013-12-24T14:08:18Z</time>
      </trkpt>
      <trkpt lat="62.8138415" lon="14.4154263">
        <ele>328.8</ele>
        <time>2013-12-24T14:08:24Z</time>
      </trkpt>
      <trkpt lat="62.8138051" lon="14.415605">
        <ele>329.4</ele>
        <time>2013-12-24T14:08:31Z</time>
      </trkpt>
      <trkpt lat="62.8137444" lon="14.4159395">
        <ele>330</ele>
        <time>2013-12-24T14:08:43Z</time>
      </trkpt>
      <trkpt lat="62.8136909" lon="14.4162174">
        <ele>330.6</ele>
        <time>2013-12-24T14:08:53Z</time>
      </trkpt>
      <trkpt lat="62.8136407" lon="14.4164853">
        <ele>330.8</ele>
        <time>2013-12-24T14:09:03Z</time>
      </trkpt>
      <trkpt lat="62.8136084" lon="14.4166672">
        <ele>331</ele>
        <time>2013-12-24T14:09:11Z</time>
      </trkpt>
      <trkpt lat="62.8135846" lon="14.4168642">
        <ele>331</ele>
        <time>2013-12-24T14:09:19Z</time>
      </trkpt>
      <trkpt lat="62.8135901" lon="14.4168802">
        <ele>331</ele>
        <time>2013-12-24T14:09:20Z</time>
      </trkpt>
      <trkpt lat="62.8136456" lon="14.4169336">
        <ele>331.2</ele>
        <time>2013-12-24T14:09:26Z</time>
      </trkpt>
      <trkpt lat="62.8137453" lon="14.4170454">
        <ele>331.8</ele>
        <time>2013-12-24T14:09:35Z</time>
      </trkpt>
      <trkpt lat="62.8137849" lon="14.4171137">
        <ele>331.8</ele>
        <time>2013-12-24T14:09:41Z</time>
      </trkpt>
      <trkpt lat="62.8138576" lon="14.4171793">
        <ele>332</ele>
        <time>2013-12-24T14:09:49Z</time>
      </trkpt>
      <trkpt lat="62.8138826" lon="14.4172288">
        <ele>332</ele>
        <time>2013-12-24T14:09:56Z</time>
      </trkpt>
      <trkpt lat="62.8139407" lon="14.4172703">
        <ele>331.8</ele>
        <time>2013-12-24T14:10:04Z</time>
      </trkpt>
      <trkpt lat="62.8139688" lon="14.4173107">
        <ele>331.6</ele>
        <time>2013-12-24T14:10:12Z</time>
      </trkpt>
      <trkpt lat="62.8139757" lon="14.4173594">
        <ele>331.2</ele>
        <time>2013-12-24T14:10:17Z</time>
      </trkpt>
      <trkpt lat="62.8139682" lon="14.4175453">
        <ele>330.8</ele>
        <time>2013-12-24T14:10:25Z</time>
      </trkpt>
      <trkpt lat="62.813983" lon="14.4175755">
        <ele>330.6</ele>
        <time>2013-12-24T14:10:31Z</time>
      </trkpt>
      <trkpt lat="62.8140041" lon="14.4176712">
        <ele>329.6</ele>
        <time>2013-12-24T14:10:59Z</time>
      </trkpt>
      <trkpt lat="62.8140106" lon="14.4176654">
        <ele>329.4</ele>
        <time>2013-12-24T14:11:08Z</time>
      </trkpt>
      <trkpt lat="62.8140019" lon="14.4176666">
        <ele>329.2</ele>
        <time>2013-12-24T14:11:34Z</time>
      </trkpt>
      <trkpt lat="62.8140125" lon="14.4177049">
        <ele>334.2</ele>
        <time>2013-12-24T14:11:52Z</time>
      </trkpt>
      <trkpt lat="62.8140049" lon="14.4177127">
        <ele>334.6</ele>
        <time>2013-12-24T14:11:57Z</time>
      </trkpt>
      <trkpt lat="62.8140101" lon="14.4176332">
        <ele>335.8</ele>
        <time>2013-12-24T14:12:06Z</time>
      </trkpt>
      <trkpt lat="62.8140198" lon="14.4176321">
        <ele>335.8</ele>
        <time>2013-12-24T14:12:07Z</time>
      </trkpt>
    </trkseg>
  </trk>
</gpx>